SLSA/SBL METAR and TAF weather

Enter ICAO airport designator
Station Type Date Time Source
SLSA METAR 2019/02/20 23:00 UTC NOAA

SLSA 202300Z 34006KT 9999 FEW020 BKN200 29/23 Q1007


Station Type Date Time Source
SLSA Decoded METAR 2019/02/20 23:00 UTC NOAA

Santa Ana, Bolivia (SLSA) 13-46S 065-26W
Feb 20, 2019 - 06:00 PM EST / 2019.02.20 2300 UTC
Wind: from the NNW (340 degrees) at 7 MPH (6 KT):0
Visibility: greater than 7 mile(s):0
Sky conditions: mostly cloudy
Temperature: 84 F (29 C)
Dew Point: 73 F (23 C)
Relative Humidity: 70%
Pressure (altimeter): 29.74 in. Hg (1007 hPa)
ob: SLSA 202300Z 34006KT 9999 FEW020 BKN200 29/23 Q1007
cycle: 23

Station Type Date Time Source
SLSA TAF 2009/01/07 11:00 UTC NOAA

METAR SLSA 071100Z 00000KT 9999 FEW020 BKN080 26/24 Q1009


Example: see airport list